Terminal Aerodrome Forecast
Issued by NWS

Home | Current Version | Previous Version | Text Only | Print | Product List | Glossary Off
Versions: 1 2 3 4 5 6 7 8 9 10 11 12 13 14 15 16 17

000
FTUS43 KIWX 221700
TAFSBN
TAF
KSBN 221720Z 2218/2318 20012G22KT P6SM SCT035
     FM222200 21010KT P6SM SCT050 BKN200
      TEMPO 2303/2306 -SHRA BKN050
     FM230800 34012KT P6SM OVC035
     FM231400 35015KT P6SM SCT035=

USA.gov is the U.S. government's official web portal to all federal, state and local government web resources and services.